Medina de Rioseco, Spain
Current Conditions -  °F | °C
As of 12:30 PM on Wednesday 26 Nov 2014 (Local Time) from LEVD Reporting Station
Broken Clouds Broken Clouds  
Wind Chill: 48°   Ceiling: 4800
Heat Index: 48°   Visibility: 6mi
Dew Point: 45°   Wind: 2mph
Humidity: 87%   Direction: NA
Pressure: 29.88"   Gusts: NA
Location:  41.88°N, 5.04°W
Report Text: LEVD 261130Z VRB02KT 9000 FEW008 BKN048 09/07 Q1012
Loading
Personal Weather Stations






























Interactive Weather Map New forecast layout! Learn more

10-Day Weather Forecast

Advertisements
Track Severe Weather on mobile